createdAt,value
2023-01-21T00:01:08.623Z,1.47
2023-01-21T00:06:05.824Z,1.23
2023-01-21T00:11:14.436Z,1.05
2023-01-21T00:16:11.972Z,0.91
2023-01-21T00:21:08.486Z,0.65
2023-01-21T00:26:06.747Z,0.61
2023-01-21T00:31:05.696Z,0.54
2023-01-21T00:36:05.910Z,0.50
2023-01-21T00:41:04.349Z,0.52
2023-01-21T00:46:00.805Z,0.51
2023-01-21T00:51:00.471Z,0.61
2023-01-21T00:56:01.467Z,0.95
2023-01-21T01:01:05.395Z,1.14
2023-01-21T01:06:04.163Z,1.16
2023-01-21T01:11:01.132Z,1.28
2023-01-21T01:15:58.581Z,1.38
2023-01-21T01:20:55.542Z,1.21
2023-01-21T01:26:03.140Z,1.33
2023-01-21T01:31:00.539Z,1.09
2023-01-21T01:36:01.885Z,1.10
2023-01-21T01:40:58.414Z,1.01
2023-01-21T01:45:54.825Z,1.19
2023-01-21T01:50:51.809Z,1.31
2023-01-21T01:55:49.337Z,1.25
2023-01-21T02:00:46.055Z,1.14
2023-01-21T02:05:43.876Z,1.33
2023-01-21T02:10:40.426Z,1.41
2023-01-21T02:15:48.706Z,1.34
2023-01-21T02:21:21.877Z,1.42
2023-01-21T02:26:39.772Z,1.38
2023-01-21T02:31:38.909Z,1.41
2023-01-21T02:36:56.766Z,1.54
2023-01-21T02:42:05.041Z,1.49
2023-01-21T02:47:11.919Z,1.55
2023-01-21T02:52:08.412Z,1.37
2023-01-21T02:57:14.959Z,1.40
2023-01-21T03:02:26.196Z,1.35
2023-01-21T03:07:27.413Z,1.44
2023-01-21T03:13:05.277Z,1.38
2023-01-21T03:18:40.341Z,1.47
2023-01-21T03:23:39.439Z,1.46
2023-01-21T03:28:43.059Z,1.42
2023-01-21T03:33:45.828Z,1.35
2023-01-21T03:38:50.636Z,1.39
2023-01-21T03:43:47.122Z,1.59
2023-01-21T03:48:53.237Z,1.30
2023-01-21T03:53:56.522Z,1.53
2023-01-21T03:58:53.164Z,1.64
2023-01-21T04:03:49.591Z,1.42
2023-01-21T04:08:46.409Z,1.37
2023-01-21T04:13:42.874Z,1.53
2023-01-21T04:18:39.320Z,1.65
2023-01-21T04:23:35.708Z,1.53
2023-01-21T04:28:32.140Z,1.46
2023-01-21T04:33:29.424Z,1.65
2023-01-21T04:38:25.810Z,1.63
2023-01-21T04:43:22.239Z,1.56
2023-01-21T04:48:18.696Z,1.46
2023-01-21T04:53:15.075Z,1.58
2023-01-21T04:58:11.461Z,1.47
2023-01-21T05:03:07.884Z,1.53
2023-01-21T05:08:04.319Z,1.43
2023-01-21T05:13:00.733Z,1.42
2023-01-21T05:17:57.272Z,1.56
2023-01-21T05:22:53.645Z,1.63
2023-01-21T05:27:54.192Z,1.49
2023-01-21T05:32:52.004Z,1.45
2023-01-21T05:37:48.418Z,1.61
2023-01-21T05:42:46.148Z,1.55
2023-01-21T05:47:43.058Z,1.56
2023-01-21T05:52:39.712Z,1.60
2023-01-21T05:57:36.143Z,1.44
2023-01-21T06:02:32.706Z,1.54
2023-01-21T06:07:29.151Z,1.44
2023-01-21T06:12:25.641Z,1.39
2023-01-21T06:17:22.095Z,1.37
2023-01-21T06:22:18.803Z,1.30
2023-01-21T06:27:15.220Z,1.26
2023-01-21T06:32:11.639Z,1.34
2023-01-21T06:37:08.064Z,1.41
2023-01-21T06:42:04.545Z,1.34
2023-01-21T06:47:01.717Z,1.25
2023-01-21T06:51:58.573Z,1.38
2023-01-21T06:56:54.967Z,1.39
2023-01-21T07:01:51.474Z,1.29
2023-01-21T07:06:47.889Z,1.33
2023-01-21T07:11:44.276Z,1.27
2023-01-21T07:16:40.820Z,1.09
2023-01-21T07:21:37.283Z,1.16
2023-01-21T07:26:37.765Z,1.10
2023-01-21T07:31:34.220Z,1.03
2023-01-21T07:36:30.788Z,0.92
2023-01-21T07:41:27.293Z,1.00
2023-01-21T07:46:23.905Z,1.16
2023-01-21T07:51:21.246Z,1.27
2023-01-21T07:56:18.409Z,1.17
2023-01-21T08:01:14.847Z,1.01
2023-01-21T08:06:11.692Z,1.25
2023-01-21T08:11:08.137Z,1.13
2023-01-21T08:16:05.029Z,1.05
2023-01-21T08:21:01.470Z,1.33
2023-01-21T08:26:02.337Z,1.29
2023-01-21T08:31:25.085Z,1.35
2023-01-21T08:36:21.525Z,1.42
2023-01-21T08:41:18.271Z,1.38
2023-01-21T08:46:14.707Z,1.42
2023-01-21T08:51:11.136Z,1.45
2023-01-21T08:56:07.706Z,1.39
2023-01-21T09:01:11.906Z,1.60
2023-01-21T09:06:08.413Z,1.54
2023-01-21T09:11:06.703Z,1.57
2023-01-21T09:16:07.451Z,1.61
2023-01-21T09:21:05.750Z,1.51
2023-01-21T09:26:14.390Z,1.31
2023-01-21T09:31:14.387Z,1.44
2023-01-21T09:36:16.776Z,1.43
2023-01-21T09:41:29.404Z,1.57
2023-01-21T09:46:37.150Z,1.60
2023-01-21T09:51:52.283Z,1.95
2023-01-21T09:57:00.727Z,2.03
2023-01-21T10:02:00.197Z,2.09
2023-01-21T10:07:03.168Z,2.28
2023-01-21T10:12:15.623Z,2.06
2023-01-21T10:17:14.853Z,2.30
2023-01-21T10:22:29.139Z,2.41
2023-01-21T10:27:28.413Z,2.37
2023-01-21T10:32:27.167Z,2.22
2023-01-21T10:37:42.175Z,2.42
2023-01-21T10:42:52.919Z,2.44
2023-01-21T10:48:17.719Z,2.71
2023-01-21T10:53:20.622Z,2.52
2023-01-21T10:58:35.633Z,2.85
2023-01-21T11:03:38.845Z,2.50
2023-01-21T11:08:35.586Z,2.66
2023-01-21T11:13:35.412Z,2.77
2023-01-21T11:18:42.455Z,2.81
2023-01-21T11:23:39.242Z,2.90
2023-01-21T11:28:35.739Z,2.94
2023-01-21T11:33:32.596Z,2.84
2023-01-21T11:38:28.946Z,3.11
2023-01-21T11:43:39.707Z,3.02
2023-01-21T11:48:36.645Z,2.85
2023-01-21T11:53:33.025Z,3.04
2023-01-21T11:58:33.307Z,3.28
2023-01-21T12:03:34.624Z,3.25
2023-01-21T12:08:35.051Z,3.31
2023-01-21T12:13:41.319Z,3.14
2023-01-21T12:18:56.337Z,2.99
2023-01-21T12:24:26.978Z,3.26
2023-01-21T12:29:44.866Z,3.33
2023-01-21T12:35:03.134Z,3.89
2023-01-21T12:40:03.747Z,4.75
2023-01-21T12:45:24.757Z,4.02
2023-01-21T12:50:35.188Z,4.04
2023-01-21T12:55:36.506Z,3.48
2023-01-21T13:00:38.584Z,3.21
2023-01-21T13:05:54.132Z,4.92
2023-01-21T13:10:59.436Z,5.60
2023-01-21T13:16:03.333Z,5.56
2023-01-21T13:21:08.074Z,5.34
2023-01-21T13:26:46.518Z,5.11
2023-01-21T13:32:10.681Z,4.55
2023-01-21T13:37:48.115Z,3.95
2023-01-21T13:42:59.241Z,3.77
2023-01-21T13:48:22.851Z,3.86
2023-01-21T13:53:49.171Z,3.85
2023-01-21T13:58:50.116Z,3.63
2023-01-21T14:03:58.464Z,3.44
2023-01-21T14:09:11.186Z,3.41
2023-01-21T14:14:29.001Z,3.41
2023-01-21T14:19:25.359Z,3.47
2023-01-21T14:24:30.101Z,3.46
2023-01-21T14:29:35.375Z,3.33
2023-01-21T14:34:41.959Z,3.39
2023-01-21T14:40:06.536Z,3.35
2023-01-21T14:45:05.064Z,3.26
2023-01-21T14:50:01.593Z,2.97
2023-01-21T14:54:59.238Z,2.82
2023-01-21T15:00:10.426Z,2.67
2023-01-21T15:05:27.704Z,2.44
2023-01-21T15:10:35.127Z,2.47
2023-01-21T15:15:36.683Z,2.33
2023-01-21T15:20:42.067Z,2.22
2023-01-21T15:26:11.193Z,1.97
2023-01-21T15:31:20.867Z,1.99
2023-01-21T15:36:27.117Z,1.97
2023-01-21T15:41:53.324Z,1.89
2023-01-21T15:47:11.123Z,1.75
2023-01-21T15:52:24.427Z,1.47
2023-01-21T15:57:48.369Z,1.53
2023-01-21T16:02:59.901Z,1.47
2023-01-21T16:08:28.137Z,1.31
2023-01-21T16:13:53.893Z,1.45
2023-01-21T16:19:10.792Z,1.34
2023-01-21T16:24:16.896Z,1.42
2023-01-21T16:29:14.999Z,1.64
2023-01-21T16:34:11.462Z,1.71
2023-01-21T16:39:10.077Z,1.58
2023-01-21T16:44:15.651Z,1.63
2023-01-21T16:49:17.072Z,1.57
2023-01-21T16:54:22.663Z,1.32
2023-01-21T16:59:26.281Z,1.38
2023-01-21T17:04:23.516Z,1.24
2023-01-21T17:09:28.719Z,1.27
2023-01-21T17:14:30.834Z,1.10
2023-01-21T17:19:33.754Z,1.51
2023-01-21T17:24:39.322Z,1.45
2023-01-21T17:29:36.228Z,1.60
2023-01-21T17:34:37.351Z,1.26
2023-01-21T17:39:45.669Z,1.20
2023-01-21T17:44:46.880Z,1.11
2023-01-21T17:49:45.217Z,0.76
2023-01-21T17:54:41.702Z,0.89
2023-01-21T17:59:38.620Z,1.05
2023-01-21T18:04:35.153Z,1.18
2023-01-21T18:09:34.408Z,1.20
2023-01-21T18:14:32.589Z,1.23
2023-01-21T18:19:37.890Z,1.11
2023-01-21T18:24:35.475Z,1.38
2023-01-21T18:29:31.952Z,1.36
2023-01-21T18:34:29.115Z,1.46
2023-01-21T18:39:25.660Z,1.39
2023-01-21T18:44:22.205Z,1.60
2023-01-21T18:49:20.531Z,1.40
2023-01-21T18:54:18.186Z,1.42
2023-01-21T18:59:17.249Z,1.29
2023-01-21T19:04:16.378Z,1.24
2023-01-21T19:09:20.323Z,1.16
2023-01-21T19:14:17.803Z,1.33
2023-01-21T19:19:16.096Z,0.92
2023-01-21T19:24:12.605Z,0.90
2023-01-21T19:29:15.125Z,0.94
2023-01-21T19:34:11.484Z,1.14
2023-01-21T19:39:14.377Z,0.95
2023-01-21T19:44:10.629Z,0.86
2023-01-21T19:49:12.679Z,0.78
2023-01-21T19:54:09.051Z,0.59
2023-01-21T19:59:05.455Z,0.57
2023-01-21T20:04:01.807Z,0.39
2023-01-21T20:08:58.991Z,0.35
2023-01-21T20:13:55.294Z,0.30
2023-01-21T20:18:51.521Z,0.34
2023-01-21T20:23:47.732Z,0.29
2023-01-21T20:28:47.666Z,0.38
2023-01-21T20:33:44.215Z,0.23
2023-01-21T20:38:42.109Z,0.25
2023-01-21T20:43:38.335Z,0.38
2023-01-21T20:48:35.690Z,0.43
2023-01-21T20:53:31.995Z,0.34
2023-01-21T20:58:28.520Z,0.32
2023-01-21T21:03:24.849Z,0.44
2023-01-21T21:08:21.741Z,0.38
2023-01-21T21:13:18.126Z,0.40
2023-01-21T21:18:14.767Z,0.55
2023-01-21T21:23:16.880Z,0.60
2023-01-21T21:28:14.252Z,0.76
2023-01-21T21:33:15.089Z,0.58
2023-01-21T21:38:12.816Z,0.42
2023-01-21T21:43:31.495Z,0.63
2023-01-21T21:48:40.986Z,0.65
2023-01-21T21:53:38.092Z,0.82
2023-01-21T21:58:34.409Z,0.78
2023-01-21T22:03:30.683Z,0.74
2023-01-21T22:08:29.247Z,0.73
2023-01-21T22:13:25.666Z,0.66
2023-01-21T22:18:22.630Z,0.89
2023-01-21T22:23:18.981Z,0.77
2023-01-21T22:28:15.422Z,0.82
2023-01-21T22:33:11.679Z,0.83
2023-01-21T22:38:08.502Z,1.02
2023-01-21T22:43:04.774Z,0.85
2023-01-21T22:48:01.716Z,0.90
2023-01-21T22:52:57.938Z,1.14
2023-01-21T22:57:54.241Z,1.13
2023-01-21T23:02:50.575Z,0.91
2023-01-21T23:07:47.015Z,0.93
2023-01-21T23:12:43.404Z,0.93
2023-01-21T23:17:39.948Z,1.10
2023-01-21T23:22:36.184Z,1.23
2023-01-21T23:27:32.527Z,1.13
2023-01-21T23:32:28.823Z,1.03
2023-01-21T23:37:25.076Z,1.02
2023-01-21T23:42:23.613Z,0.99
2023-01-21T23:47:19.873Z,0.85
2023-01-21T23:52:16.171Z,1.27
2023-01-21T23:57:12.623Z,1.01
